sensor_id;sensor_type;location;lat;lon;timestamp;temperature;humidity
40600;DHT22;26309;50.924;4.754;2022-10-17T00:01:49;16.20;99.90
40600;DHT22;26309;50.924;4.754;2022-10-17T00:04:15;16.20;99.90
40600;DHT22;26309;50.924;4.754;2022-10-17T00:06:41;16.30;99.90
40600;DHT22;26309;50.924;4.754;2022-10-17T00:09:07;16.30;99.90
40600;DHT22;26309;50.924;4.754;2022-10-17T00:11:34;16.30;99.90
40600;DHT22;26309;50.924;4.754;2022-10-17T00:13:59;16.30;99.90
40600;DHT22;26309;50.924;4.754;2022-10-17T00:16:30;16.40;99.90
40600;DHT22;26309;50.924;4.754;2022-10-17T00:18:57;16.40;99.90
40600;DHT22;26309;50.924;4.754;2022-10-17T00:21:24;16.30;99.90
40600;DHT22;26309;50.924;4.754;2022-10-17T00:23:51;16.40;99.90
40600;DHT22;26309;50.924;4.754;2022-10-17T00:26:18;16.40;99.90
40600;DHT22;26309;50.924;4.754;2022-10-17T00:28:47;16.40;99.90
40600;DHT22;26309;50.924;4.754;2022-10-17T00:31:14;16.40;99.90
40600;DHT22;26309;50.924;4.754;2022-10-17T00:33:40;16.50;99.90
40600;DHT22;26309;50.924;4.754;2022-10-17T00:36:13;16.50;99.90
40600;DHT22;26309;50.924;4.754;2022-10-17T00:38:40;16.40;99.90
40600;DHT22;26309;50.924;4.754;2022-10-17T00:41:09;16.40;99.90
40600;DHT22;26309;50.924;4.754;2022-10-17T00:46:52;16.50;99.90
40600;DHT22;26309;50.924;4.754;2022-10-17T00:49:18;16.50;99.90
40600;DHT22;26309;50.924;4.754;2022-10-17T00:51:48;16.60;99.90
40600;DHT22;26309;50.924;4.754;2022-10-17T00:54:18;16.50;99.90
40600;DHT22;26309;50.924;4.754;2022-10-17T00:56:46;16.70;99.90
40600;DHT22;26309;50.924;4.754;2022-10-17T00:59:12;16.80;99.90
40600;DHT22;26309;50.924;4.754;2022-10-17T01:01:47;16.70;99.90
40600;DHT22;26309;50.924;4.754;2022-10-17T01:04:17;16.80;99.90
40600;DHT22;26309;50.924;4.754;2022-10-17T01:06:42;16.80;99.90
40600;DHT22;26309;50.924;4.754;2022-10-17T01:09:08;16.70;99.90
40600;DHT22;26309;50.924;4.754;2022-10-17T01:11:38;16.70;99.90
40600;DHT22;26309;50.924;4.754;2022-10-17T01:17:20;16.80;99.90
40600;DHT22;26309;50.924;4.754;2022-10-17T01:25:26;16.80;99.90
40600;DHT22;26309;50.924;4.754;2022-10-17T01:31:05;16.90;99.90
40600;DHT22;26309;50.924;4.754;2022-10-17T01:34:07;17.00;99.90
40600;DHT22;26309;50.924;4.754;2022-10-17T01:42:43;17.00;99.90
40600;DHT22;26309;50.924;4.754;2022-10-17T01:45:15;17.10;99.90
40600;DHT22;26309;50.924;4.754;2022-10-17T01:47:45;17.10;99.90
40600;DHT22;26309;50.924;4.754;2022-10-17T01:50:24;17.00;99.90
40600;DHT22;26309;50.924;4.754;2022-10-17T01:53:01;17.10;99.90
40600;DHT22;26309;50.924;4.754;2022-10-17T01:55:42;17.20;99.90
40600;DHT22;26309;50.924;4.754;2022-10-17T01:58:21;17.20;99.90
40600;DHT22;26309;50.924;4.754;2022-10-17T02:00:48;17.20;99.90
40600;DHT22;26309;50.924;4.754;2022-10-17T02:03:17;17.10;99.90
40600;DHT22;26309;50.924;4.754;2022-10-17T02:05:44;17.20;99.90
40600;DHT22;26309;50.924;4.754;2022-10-17T02:08:23;17.20;99.90
40600;DHT22;26309;50.924;4.754;2022-10-17T02:10:57;17.30;99.90
40600;DHT22;26309;50.924;4.754;2022-10-17T02:19:40;17.50;99.90
40600;DHT22;26309;50.924;4.754;2022-10-17T02:27:55;17.40;99.90
40600;DHT22;26309;50.924;4.754;2022-10-17T02:30:39;17.40;99.90
40600;DHT22;26309;50.924;4.754;2022-10-17T02:33:17;17.40;99.90
40600;DHT22;26309;50.924;4.754;2022-10-17T02:35:52;17.40;99.90
40600;DHT22;26309;50.924;4.754;2022-10-17T02:38:20;17.50;99.90
40600;DHT22;26309;50.924;4.754;2022-10-17T02:40:49;17.50;99.90
40600;DHT22;26309;50.924;4.754;2022-10-17T02:43:16;17.40;99.90
40600;DHT22;26309;50.924;4.754;2022-10-17T02:45:42;17.40;99.90
40600;DHT22;26309;50.924;4.754;2022-10-17T02:48:16;17.50;99.90
40600;DHT22;26309;50.924;4.754;2022-10-17T02:50:48;17.50;99.90
40600;DHT22;26309;50.924;4.754;2022-10-17T02:56:14;17.60;99.90
40600;DHT22;26309;50.924;4.754;2022-10-17T02:58:42;17.60;99.90
40600;DHT22;26309;50.924;4.754;2022-10-17T03:01:11;17.60;99.90
40600;DHT22;26309;50.924;4.754;2022-10-17T03:03:38;17.70;99.90
40600;DHT22;26309;50.924;4.754;2022-10-17T03:06:03;17.70;99.90
40600;DHT22;26309;50.924;4.754;2022-10-17T03:08:29;17.70;99.90
40600;DHT22;26309;50.924;4.754;2022-10-17T03:10:55;17.60;99.90
40600;DHT22;26309;50.924;4.754;2022-10-17T03:13:21;17.70;99.90
40600;DHT22;26309;50.924;4.754;2022-10-17T03:15:46;17.70;99.90
40600;DHT22;26309;50.924;4.754;2022-10-17T03:18:12;17.80;99.90
40600;DHT22;26309;50.924;4.754;2022-10-17T03:20:38;17.80;99.90
40600;DHT22;26309;50.924;4.754;2022-10-17T03:23:04;17.80;99.90
40600;DHT22;26309;50.924;4.754;2022-10-17T03:25:30;17.80;99.90
40600;DHT22;26309;50.924;4.754;2022-10-17T03:27:59;17.80;99.90
40600;DHT22;26309;50.924;4.754;2022-10-17T03:30:26;17.80;99.90
40600;DHT22;26309;50.924;4.754;2022-10-17T03:32:52;17.90;99.90
40600;DHT22;26309;50.924;4.754;2022-10-17T03:35:18;17.90;99.90
40600;DHT22;26309;50.924;4.754;2022-10-17T03:37:44;18.00;99.90
40600;DHT22;26309;50.924;4.754;2022-10-17T03:40:10;18.00;99.90
40600;DHT22;26309;50.924;4.754;2022-10-17T03:42:37;18.00;99.90
40600;DHT22;26309;50.924;4.754;2022-10-17T03:45:04;18.10;99.90
40600;DHT22;26309;50.924;4.754;2022-10-17T03:47:30;18.00;99.90
40600;DHT22;26309;50.924;4.754;2022-10-17T03:49:56;18.00;99.90
40600;DHT22;26309;50.924;4.754;2022-10-17T03:52:21;18.10;99.90
40600;DHT22;26309;50.924;4.754;2022-10-17T03:54:48;18.10;99.90
40600;DHT22;26309;50.924;4.754;2022-10-17T03:57:15;18.00;99.90
40600;DHT22;26309;50.924;4.754;2022-10-17T03:59:41;18.00;99.90
40600;DHT22;26309;50.924;4.754;2022-10-17T04:02:07;17.90;99.90
40600;DHT22;26309;50.924;4.754;2022-10-17T04:04:34;17.90;99.90
40600;DHT22;26309;50.924;4.754;2022-10-17T04:06:59;17.90;99.90
40600;DHT22;26309;50.924;4.754;2022-10-17T04:09:25;18.00;99.90
40600;DHT22;26309;50.924;4.754;2022-10-17T04:11:51;17.90;99.90
40600;DHT22;26309;50.924;4.754;2022-10-17T04:14:16;17.90;99.90
40600;DHT22;26309;50.924;4.754;2022-10-17T04:16:42;17.90;99.90
40600;DHT22;26309;50.924;4.754;2022-10-17T04:19:11;17.90;99.90
40600;DHT22;26309;50.924;4.754;2022-10-17T04:21:38;17.80;99.90
40600;DHT22;26309;50.924;4.754;2022-10-17T04:24:04;17.80;99.90
40600;DHT22;26309;50.924;4.754;2022-10-17T04:26:30;17.90;99.90
40600;DHT22;26309;50.924;4.754;2022-10-17T04:28:56;17.90;99.90
40600;DHT22;26309;50.924;4.754;2022-10-17T04:31:21;17.90;99.90
40600;DHT22;26309;50.924;4.754;2022-10-17T04:33:48;17.70;99.90
40600;DHT22;26309;50.924;4.754;2022-10-17T04:36:16;17.90;99.90
40600;DHT22;26309;50.924;4.754;2022-10-17T04:38:43;17.90;99.90
40600;DHT22;26309;50.924;4.754;2022-10-17T04:41:14;17.90;99.90
40600;DHT22;26309;50.924;4.754;2022-10-17T04:43:40;18.00;99.90
40600;DHT22;26309;50.924;4.754;2022-10-17T04:46:09;18.00;99.90
40600;DHT22;26309;50.924;4.754;2022-10-17T04:48:36;17.90;99.90
40600;DHT22;26309;50.924;4.754;2022-10-17T04:51:04;18.00;99.90
40600;DHT22;26309;50.924;4.754;2022-10-17T04:53:32;18.00;99.90
40600;DHT22;26309;50.924;4.754;2022-10-17T04:55:58;18.00;99.90
40600;DHT22;26309;50.924;4.754;2022-10-17T04:58:24;18.00;99.90
40600;DHT22;26309;50.924;4.754;2022-10-17T05:00:51;18.00;99.90
40600;DHT22;26309;50.924;4.754;2022-10-17T05:03:16;17.90;99.90
40600;DHT22;26309;50.924;4.754;2022-10-17T05:05:42;17.80;99.90
40600;DHT22;26309;50.924;4.754;2022-10-17T05:08:10;17.80;99.90
40600;DHT22;26309;50.924;4.754;2022-10-17T05:10:43;17.90;99.90
40600;DHT22;26309;50.924;4.754;2022-10-17T05:13:11;18.00;99.90
40600;DHT22;26309;50.924;4.754;2022-10-17T05:15:37;17.90;99.90
40600;DHT22;26309;50.924;4.754;2022-10-17T05:18:04;17.80;99.90
40600;DHT22;26309;50.924;4.754;2022-10-17T05:20:30;17.80;99.90
40600;DHT22;26309;50.924;4.754;2022-10-17T05:22:58;17.80;99.90
40600;DHT22;26309;50.924;4.754;2022-10-17T05:25:24;17.80;99.90
40600;DHT22;26309;50.924;4.754;2022-10-17T05:27:50;17.90;99.90
40600;DHT22;26309;50.924;4.754;2022-10-17T05:30:16;17.90;99.90
40600;DHT22;26309;50.924;4.754;2022-10-17T05:32:42;18.10;99.90
40600;DHT22;26309;50.924;4.754;2022-10-17T05:35:08;18.10;99.90
40600;DHT22;26309;50.924;4.754;2022-10-17T05:37:34;18.10;99.90
40600;DHT22;26309;50.924;4.754;2022-10-17T05:40:00;18.10;99.90
40600;DHT22;26309;50.924;4.754;2022-10-17T05:43:02;18.00;99.90
40600;DHT22;26309;50.924;4.754;2022-10-17T05:46:16;18.00;99.90
40600;DHT22;26309;50.924;4.754;2022-10-17T05:48:42;18.00;99.90
40600;DHT22;26309;50.924;4.754;2022-10-17T05:51:09;18.10;99.90
40600;DHT22;26309;50.924;4.754;2022-10-17T05:53:38;18.10;99.90
40600;DHT22;26309;50.924;4.754;2022-10-17T05:56:06;18.10;99.90
40600;DHT22;26309;50.924;4.754;2022-10-17T05:58:33;18.20;99.90
40600;DHT22;26309;50.924;4.754;2022-10-17T06:01:00;18.20;99.90
40600;DHT22;26309;50.924;4.754;2022-10-17T06:03:27;18.20;99.90
40600;DHT22;26309;50.924;4.754;2022-10-17T06:05:53;18.20;99.90
40600;DHT22;26309;50.924;4.754;2022-10-17T06:08:19;18.30;99.90
40600;DHT22;26309;50.924;4.754;2022-10-17T06:10:49;18.30;99.90
40600;DHT22;26309;50.924;4.754;2022-10-17T06:13:16;18.30;99.90
40600;DHT22;26309;50.924;4.754;2022-10-17T06:15:42;18.30;99.90
40600;DHT22;26309;50.924;4.754;2022-10-17T06:18:08;18.30;99.90
40600;DHT22;26309;50.924;4.754;2022-10-17T06:20:33;18.30;99.90
40600;DHT22;26309;50.924;4.754;2022-10-17T06:22:59;18.20;99.90
40600;DHT22;26309;50.924;4.754;2022-10-17T06:25:25;18.30;99.90
40600;DHT22;26309;50.924;4.754;2022-10-17T06:27:51;18.30;99.90
40600;DHT22;26309;50.924;4.754;2022-10-17T06:30:20;18.40;99.90
40600;DHT22;26309;50.924;4.754;2022-10-17T06:32:45;18.30;99.90
40600;DHT22;26309;50.924;4.754;2022-10-17T06:35:11;18.30;99.90
40600;DHT22;26309;50.924;4.754;2022-10-17T06:37:37;18.30;99.90
40600;DHT22;26309;50.924;4.754;2022-10-17T06:40:04;18.40;99.90
40600;DHT22;26309;50.924;4.754;2022-10-17T06:42:31;18.40;99.90
40600;DHT22;26309;50.924;4.754;2022-10-17T06:44:58;18.40;99.90
40600;DHT22;26309;50.924;4.754;2022-10-17T06:47:24;18.40;99.90
40600;DHT22;26309;50.924;4.754;2022-10-17T06:49:50;18.40;99.90
40600;DHT22;26309;50.924;4.754;2022-10-17T06:52:16;18.40;99.90
40600;DHT22;26309;50.924;4.754;2022-10-17T06:54:43;18.50;99.90
40600;DHT22;26309;50.924;4.754;2022-10-17T06:57:09;18.60;99.90
40600;DHT22;26309;50.924;4.754;2022-10-17T06:59:35;18.60;99.90
40600;DHT22;26309;50.924;4.754;2022-10-17T07:02:01;18.60;99.90
40600;DHT22;26309;50.924;4.754;2022-10-17T07:04:27;18.70;99.90
40600;DHT22;26309;50.924;4.754;2022-10-17T07:06:53;18.80;99.90
40600;DHT22;26309;50.924;4.754;2022-10-17T07:09:19;18.90;99.90
40600;DHT22;26309;50.924;4.754;2022-10-17T07:11:44;19.00;99.90
40600;DHT22;26309;50.924;4.754;2022-10-17T07:14:10;19.10;99.90
40600;DHT22;26309;50.924;4.754;2022-10-17T07:16:36;19.20;99.90
40600;DHT22;26309;50.924;4.754;2022-10-17T07:19:02;19.40;99.90
40600;DHT22;26309;50.924;4.754;2022-10-17T07:21:28;19.50;99.90
40600;DHT22;26309;50.924;4.754;2022-10-17T07:23:58;19.40;99.90
40600;DHT22;26309;50.924;4.754;2022-10-17T07:26:23;19.40;99.90
40600;DHT22;26309;50.924;4.754;2022-10-17T07:28:52;19.50;99.90
40600;DHT22;26309;50.924;4.754;2022-10-17T07:31:19;19.50;99.90
40600;DHT22;26309;50.924;4.754;2022-10-17T07:33:47;19.50;99.90
40600;DHT22;26309;50.924;4.754;2022-10-17T07:36:13;19.60;99.90
40600;DHT22;26309;50.924;4.754;2022-10-17T07:38:40;19.60;99.90
40600;DHT22;26309;50.924;4.754;2022-10-17T07:41:08;19.60;99.90
40600;DHT22;26309;50.924;4.754;2022-10-17T07:43:34;19.70;99.90
40600;DHT22;26309;50.924;4.754;2022-10-17T07:46:03;19.70;99.90
40600;DHT22;26309;50.924;4.754;2022-10-17T07:48:30;19.70;99.90
40600;DHT22;26309;50.924;4.754;2022-10-17T07:50:56;19.70;99.90
40600;DHT22;26309;50.924;4.754;2022-10-17T07:53:22;19.60;99.90
40600;DHT22;26309;50.924;4.754;2022-10-17T07:55:48;19.50;99.90
40600;DHT22;26309;50.924;4.754;2022-10-17T07:58:14;19.30;99.90
40600;DHT22;26309;50.924;4.754;2022-10-17T08:00:40;19.30;99.90
40600;DHT22;26309;50.924;4.754;2022-10-17T08:03:06;19.40;99.90
40600;DHT22;26309;50.924;4.754;2022-10-17T08:05:33;19.40;99.90
40600;DHT22;26309;50.924;4.754;2022-10-17T08:07:58;19.10;99.90
40600;DHT22;26309;50.924;4.754;2022-10-17T08:10:24;19.10;99.90
40600;DHT22;26309;50.924;4.754;2022-10-17T08:12:55;18.90;99.90
40600;DHT22;26309;50.924;4.754;2022-10-17T08:15:22;18.90;99.90
40600;DHT22;26309;50.924;4.754;2022-10-17T08:17:48;19.10;99.90
40600;DHT22;26309;50.924;4.754;2022-10-17T08:20:14;19.30;99.90
40600;DHT22;26309;50.924;4.754;2022-10-17T08:22:40;19.30;99.90
40600;DHT22;26309;50.924;4.754;2022-10-17T08:25:06;19.30;99.90
40600;DHT22;26309;50.924;4.754;2022-10-17T08:27:33;19.30;99.90
40600;DHT22;26309;50.924;4.754;2022-10-17T08:29:59;19.40;99.90
40600;DHT22;26309;50.924;4.754;2022-10-17T08:32:26;19.40;99.90
40600;DHT22;26309;50.924;4.754;2022-10-17T08:34:53;19.40;99.90
40600;DHT22;26309;50.924;4.754;2022-10-17T08:37:20;19.50;99.90
40600;DHT22;26309;50.924;4.754;2022-10-17T08:39:46;19.50;99.90
40600;DHT22;26309;50.924;4.754;2022-10-17T08:42:24;19.40;99.90
40600;DHT22;26309;50.924;4.754;2022-10-17T08:47:38;19.00;99.90
40600;DHT22;26309;50.924;4.754;2022-10-17T08:50:53;19.10;99.90
40600;DHT22;26309;50.924;4.754;2022-10-17T08:55:51;18.90;99.90
40600;DHT22;26309;50.924;4.754;2022-10-17T08:58:27;18.70;99.90
40600;DHT22;26309;50.924;4.754;2022-10-17T09:01:35;18.80;99.90
40600;DHT22;26309;50.924;4.754;2022-10-17T09:12:43;19.20;99.90
40600;DHT22;26309;50.924;4.754;2022-10-17T09:15:38;19.20;99.90
40600;DHT22;26309;50.924;4.754;2022-10-17T09:18:17;19.00;99.90
40600;DHT22;26309;50.924;4.754;2022-10-17T09:20:56;18.90;99.90
40600;DHT22;26309;50.924;4.754;2022-10-17T09:23:30;19.00;99.90
40600;DHT22;26309;50.924;4.754;2022-10-17T09:25:59;19.00;99.90
40600;DHT22;26309;50.924;4.754;2022-10-17T09:28:35;19.00;99.90
40600;DHT22;26309;50.924;4.754;2022-10-17T09:31:24;19.00;99.90
40600;DHT22;26309;50.924;4.754;2022-10-17T09:33:54;19.10;99.90
40600;DHT22;26309;50.924;4.754;2022-10-17T09:36:23;19.10;99.90
40600;DHT22;26309;50.924;4.754;2022-10-17T09:39:02;19.10;99.90
40600;DHT22;26309;50.924;4.754;2022-10-17T09:41:35;19.00;99.90
40600;DHT22;26309;50.924;4.754;2022-10-17T09:47:41;19.00;99.90
40600;DHT22;26309;50.924;4.754;2022-10-17T09:50:00;18.90;99.90
40600;DHT22;26309;50.924;4.754;2022-10-17T09:53:03;18.90;99.90
40600;DHT22;26309;50.924;4.754;2022-10-17T09:55:43;19.00;99.90
40600;DHT22;26309;50.924;4.754;2022-10-17T09:58:10;19.20;99.90
40600;DHT22;26309;50.924;4.754;2022-10-17T10:00:38;19.30;99.90
40600;DHT22;26309;50.924;4.754;2022-10-17T10:03:31;19.40;99.90
40600;DHT22;26309;50.924;4.754;2022-10-17T10:08:56;19.60;99.90
40600;DHT22;26309;50.924;4.754;2022-10-17T10:11:49;19.70;99.90
40600;DHT22;26309;50.924;4.754;2022-10-17T10:14:36;19.90;99.90
40600;DHT22;26309;50.924;4.754;2022-10-17T10:19:50;19.40;99.90
40600;DHT22;26309;50.924;4.754;2022-10-17T10:22:18;19.40;99.90
40600;DHT22;26309;50.924;4.754;2022-10-17T10:24:44;19.40;99.90
40600;DHT22;26309;50.924;4.754;2022-10-17T10:27:14;19.60;99.90
40600;DHT22;26309;50.924;4.754;2022-10-17T10:29:42;19.30;99.90
40600;DHT22;26309;50.924;4.754;2022-10-17T10:32:24;19.40;99.90
40600;DHT22;26309;50.924;4.754;2022-10-17T10:35:04;19.30;99.90
40600;DHT22;26309;50.924;4.754;2022-10-17T10:37:37;19.10;99.90
40600;DHT22;26309;50.924;4.754;2022-10-17T10:40:06;19.00;99.90
40600;DHT22;26309;50.924;4.754;2022-10-17T10:42:40;19.10;99.90
40600;DHT22;26309;50.924;4.754;2022-10-17T10:45:28;19.30;99.90
40600;DHT22;26309;50.924;4.754;2022-10-17T10:51:14;20.00;99.90
40600;DHT22;26309;50.924;4.754;2022-10-17T10:56:40;19.90;99.90
40600;DHT22;26309;50.924;4.754;2022-10-17T10:59:09;20.00;99.90
40600;DHT22;26309;50.924;4.754;2022-10-17T11:01:52;20.20;99.90
40600;DHT22;26309;50.924;4.754;2022-10-17T11:07:51;20.20;99.90
40600;DHT22;26309;50.924;4.754;2022-10-17T11:10:38;20.30;99.90
40600;DHT22;26309;50.924;4.754;2022-10-17T11:13:12;20.30;99.90
40600;DHT22;26309;50.924;4.754;2022-10-17T11:18:29;20.30;99.90
40600;DHT22;26309;50.924;4.754;2022-10-17T11:23:57;20.10;99.90
40600;DHT22;26309;50.924;4.754;2022-10-17T11:26:30;20.10;99.90
40600;DHT22;26309;50.924;4.754;2022-10-17T11:28:58;20.10;99.90
40600;DHT22;26309;50.924;4.754;2022-10-17T11:31:47;20.00;99.90
40600;DHT22;26309;50.924;4.754;2022-10-17T11:34:19;19.90;99.90
40600;DHT22;26309;50.924;4.754;2022-10-17T11:36:51;19.80;99.90
40600;DHT22;26309;50.924;4.754;2022-10-17T11:39:43;19.80;99.90
40600;DHT22;26309;50.924;4.754;2022-10-17T11:44:56;19.60;99.90
40600;DHT22;26309;50.924;4.754;2022-10-17T11:55:26;19.90;99.90
40600;DHT22;26309;50.924;4.754;2022-10-17T12:06:07;19.90;99.90
40600;DHT22;26309;50.924;4.754;2022-10-17T12:14:36;19.70;99.90
40600;DHT22;26309;50.924;4.754;2022-10-17T12:17:04;19.70;99.90
40600;DHT22;26309;50.924;4.754;2022-10-17T12:19:33;19.70;99.90
40600;DHT22;26309;50.924;4.754;2022-10-17T12:22:22;19.80;99.90
40600;DHT22;26309;50.924;4.754;2022-10-17T12:25:00;19.80;99.90
40600;DHT22;26309;50.924;4.754;2022-10-17T12:27:41;19.70;99.90
40600;DHT22;26309;50.924;4.754;2022-10-17T12:32:37;19.70;99.90
40600;DHT22;26309;50.924;4.754;2022-10-17T12:35:20;19.70;99.90
40600;DHT22;26309;50.924;4.754;2022-10-17T12:51:05;19.90;99.90
40600;DHT22;26309;50.924;4.754;2022-10-17T12:56:48;19.80;99.90
40600;DHT22;26309;50.924;4.754;2022-10-17T12:59:21;19.80;99.90
40600;DHT22;26309;50.924;4.754;2022-10-17T13:01:53;19.70;99.90
40600;DHT22;26309;50.924;4.754;2022-10-17T13:04:20;19.80;99.90
40600;DHT22;26309;50.924;4.754;2022-10-17T13:06:51;19.90;99.90
40600;DHT22;26309;50.924;4.754;2022-10-17T13:09:34;20.10;99.90
40600;DHT22;26309;50.924;4.754;2022-10-17T13:12:08;20.10;99.90
40600;DHT22;26309;50.924;4.754;2022-10-17T13:14:39;20.20;99.90
40600;DHT22;26309;50.924;4.754;2022-10-17T13:17:06;20.30;99.90
40600;DHT22;26309;50.924;4.754;2022-10-17T13:19:45;20.40;99.90
40600;DHT22;26309;50.924;4.754;2022-10-17T13:22:20;20.50;99.90
40600;DHT22;26309;50.924;4.754;2022-10-17T13:24:47;20.60;99.90
40600;DHT22;26309;50.924;4.754;2022-10-17T13:27:32;20.70;99.90
40600;DHT22;26309;50.924;4.754;2022-10-17T13:30:00;20.90;99.90
40600;DHT22;26309;50.924;4.754;2022-10-17T13:32:36;20.90;99.90
40600;DHT22;26309;50.924;4.754;2022-10-17T13:37:33;21.20;99.90
40600;DHT22;26309;50.924;4.754;2022-10-17T13:40:01;21.40;99.90
40600;DHT22;26309;50.924;4.754;2022-10-17T13:42:36;21.00;99.90
40600;DHT22;26309;50.924;4.754;2022-10-17T13:45:03;20.90;99.90
40600;DHT22;26309;50.924;4.754;2022-10-17T13:47:36;20.90;99.90
40600;DHT22;26309;50.924;4.754;2022-10-17T13:50:04;21.00;99.90
40600;DHT22;26309;50.924;4.754;2022-10-17T13:52:30;21.10;99.90
40600;DHT22;26309;50.924;4.754;2022-10-17T13:55:16;21.00;99.90
40600;DHT22;26309;50.924;4.754;2022-10-17T13:57:44;21.00;99.90
40600;DHT22;26309;50.924;4.754;2022-10-17T14:00:19;20.90;99.90
40600;DHT22;26309;50.924;4.754;2022-10-17T14:02:46;20.80;99.90
40600;DHT22;26309;50.924;4.754;2022-10-17T14:05:18;20.90;99.90
40600;DHT22;26309;50.924;4.754;2022-10-17T14:12:53;20.80;99.90
40600;DHT22;26309;50.924;4.754;2022-10-17T14:15:22;20.80;99.90
40600;DHT22;26309;50.924;4.754;2022-10-17T14:17:55;20.70;99.90
40600;DHT22;26309;50.924;4.754;2022-10-17T14:20:22;20.60;99.90
40600;DHT22;26309;50.924;4.754;2022-10-17T14:22:48;20.80;99.90
40600;DHT22;26309;50.924;4.754;2022-10-17T14:25:35;20.70;99.90
40600;DHT22;26309;50.924;4.754;2022-10-17T14:28:13;20.60;99.90
40600;DHT22;26309;50.924;4.754;2022-10-17T14:30:52;20.60;99.90
40600;DHT22;26309;50.924;4.754;2022-10-17T14:33:27;20.60;99.90
40600;DHT22;26309;50.924;4.754;2022-10-17T14:35:59;20.70;99.90
40600;DHT22;26309;50.924;4.754;2022-10-17T14:38:25;20.70;99.90
40600;DHT22;26309;50.924;4.754;2022-10-17T14:40:59;20.80;99.90
40600;DHT22;26309;50.924;4.754;2022-10-17T14:43:28;20.90;99.90
40600;DHT22;26309;50.924;4.754;2022-10-17T14:45:58;20.90;99.90
40600;DHT22;26309;50.924;4.754;2022-10-17T14:48:25;20.90;99.90
40600;DHT22;26309;50.924;4.754;2022-10-17T14:51:13;20.90;99.90
40600;DHT22;26309;50.924;4.754;2022-10-17T14:53:40;21.10;99.90
40600;DHT22;26309;50.924;4.754;2022-10-17T14:56:26;21.00;99.90
40600;DHT22;26309;50.924;4.754;2022-10-17T14:58:52;20.90;99.90
40600;DHT22;26309;50.924;4.754;2022-10-17T15:01:18;20.90;99.90
40600;DHT22;26309;50.924;4.754;2022-10-17T15:03:44;21.00;99.90
40600;DHT22;26309;50.924;4.754;2022-10-17T15:06:23;21.10;99.90
40600;DHT22;26309;50.924;4.754;2022-10-17T15:08:51;21.10;99.90
40600;DHT22;26309;50.924;4.754;2022-10-17T15:11:17;21.00;99.90
40600;DHT22;26309;50.924;4.754;2022-10-17T15:13:42;21.00;99.90
40600;DHT22;26309;50.924;4.754;2022-10-17T15:16:23;20.90;99.90
40600;DHT22;26309;50.924;4.754;2022-10-17T15:18:49;21.00;99.90
40600;DHT22;26309;50.924;4.754;2022-10-17T15:21:18;20.90;99.90
40600;DHT22;26309;50.924;4.754;2022-10-17T15:23:44;20.80;99.90
40600;DHT22;26309;50.924;4.754;2022-10-17T15:26:30;20.80;99.90
40600;DHT22;26309;50.924;4.754;2022-10-17T15:28:56;20.80;99.90
40600;DHT22;26309;50.924;4.754;2022-10-17T15:31:24;20.80;99.90
40600;DHT22;26309;50.924;4.754;2022-10-17T15:33:51;20.70;99.90
40600;DHT22;26309;50.924;4.754;2022-10-17T15:36:38;20.50;99.90
40600;DHT22;26309;50.924;4.754;2022-10-17T15:39:05;20.50;99.90
40600;DHT22;26309;50.924;4.754;2022-10-17T15:41:31;20.40;99.90
40600;DHT22;26309;50.924;4.754;2022-10-17T15:43:58;20.30;99.90
40600;DHT22;26309;50.924;4.754;2022-10-17T15:46:33;20.20;99.90
40600;DHT22;26309;50.924;4.754;2022-10-17T15:49:08;20.20;99.90
40600;DHT22;26309;50.924;4.754;2022-10-17T15:51:34;20.10;99.90
40600;DHT22;26309;50.924;4.754;2022-10-17T15:54:00;20.00;99.90
40600;DHT22;26309;50.924;4.754;2022-10-17T15:56:36;20.00;99.90
40600;DHT22;26309;50.924;4.754;2022-10-17T15:59:13;19.90;99.90
40600;DHT22;26309;50.924;4.754;2022-10-17T16:01:40;19.90;99.90
40600;DHT22;26309;50.924;4.754;2022-10-17T16:04:10;19.80;99.90
40600;DHT22;26309;50.924;4.754;2022-10-17T16:06:37;19.70;99.90
40600;DHT22;26309;50.924;4.754;2022-10-17T16:09:03;19.70;99.90
40600;DHT22;26309;50.924;4.754;2022-10-17T16:11:36;19.70;99.90
40600;DHT22;26309;50.924;4.754;2022-10-17T16:14:06;19.70;99.90
40600;DHT22;26309;50.924;4.754;2022-10-17T16:16:32;19.60;99.90
40600;DHT22;26309;50.924;4.754;2022-10-17T16:18:58;19.60;99.90
40600;DHT22;26309;50.924;4.754;2022-10-17T16:21:28;19.50;99.90
40600;DHT22;26309;50.924;4.754;2022-10-17T16:23:54;19.40;99.90
40600;DHT22;26309;50.924;4.754;2022-10-17T16:26:20;19.40;99.90
40600;DHT22;26309;50.924;4.754;2022-10-17T16:28:46;19.30;99.90
40600;DHT22;26309;50.924;4.754;2022-10-17T16:31:27;19.40;99.90
40600;DHT22;26309;50.924;4.754;2022-10-17T16:33:55;19.30;99.90
40600;DHT22;26309;50.924;4.754;2022-10-17T16:36:21;19.20;99.90
40600;DHT22;26309;50.924;4.754;2022-10-17T16:38:47;19.10;99.90
40600;DHT22;26309;50.924;4.754;2022-10-17T16:41:32;19.00;99.90
40600;DHT22;26309;50.924;4.754;2022-10-17T16:44:01;18.90;99.90
40600;DHT22;26309;50.924;4.754;2022-10-17T16:46:29;18.80;99.90
40600;DHT22;26309;50.924;4.754;2022-10-17T16:48:55;18.80;99.90
40600;DHT22;26309;50.924;4.754;2022-10-17T16:51:24;18.60;99.90
40600;DHT22;26309;50.924;4.754;2022-10-17T16:53:51;18.60;99.90
40600;DHT22;26309;50.924;4.754;2022-10-17T16:56:23;18.60;99.90
40600;DHT22;26309;50.924;4.754;2022-10-17T16:58:49;18.50;99.90
40600;DHT22;26309;50.924;4.754;2022-10-17T17:01:21;18.50;99.90
40600;DHT22;26309;50.924;4.754;2022-10-17T17:03:48;18.50;99.90
40600;DHT22;26309;50.924;4.754;2022-10-17T17:06:19;18.40;99.90
40600;DHT22;26309;50.924;4.754;2022-10-17T17:08:45;18.40;99.90
40600;DHT22;26309;50.924;4.754;2022-10-17T17:11:14;18.40;99.90
40600;DHT22;26309;50.924;4.754;2022-10-17T17:13:41;18.40;99.90
40600;DHT22;26309;50.924;4.754;2022-10-17T17:16:13;18.40;99.90
40600;DHT22;26309;50.924;4.754;2022-10-17T17:18:41;18.30;99.90
40600;DHT22;26309;50.924;4.754;2022-10-17T17:21:08;18.10;99.90
40600;DHT22;26309;50.924;4.754;2022-10-17T17:23:36;18.20;99.90
40600;DHT22;26309;50.924;4.754;2022-10-17T17:26:11;18.20;99.90
40600;DHT22;26309;50.924;4.754;2022-10-17T17:28:38;18.20;99.90
40600;DHT22;26309;50.924;4.754;2022-10-17T17:31:10;18.10;99.90
40600;DHT22;26309;50.924;4.754;2022-10-17T17:33:38;18.20;99.90
40600;DHT22;26309;50.924;4.754;2022-10-17T17:36:04;18.00;99.90
40600;DHT22;26309;50.924;4.754;2022-10-17T17:38:32;18.00;99.90
40600;DHT22;26309;50.924;4.754;2022-10-17T17:40:58;17.80;99.90
40600;DHT22;26309;50.924;4.754;2022-10-17T17:43:24;17.70;99.90
40600;DHT22;26309;50.924;4.754;2022-10-17T17:45:50;17.70;99.90
40600;DHT22;26309;50.924;4.754;2022-10-17T17:48:16;17.70;99.90
40600;DHT22;26309;50.924;4.754;2022-10-17T17:50:42;17.80;99.90
40600;DHT22;26309;50.924;4.754;2022-10-17T17:53:09;17.70;99.90
40600;DHT22;26309;50.924;4.754;2022-10-17T17:55:36;17.60;99.90